createdAt,value
2018-09-01T00:00:31.777Z,0.00
2018-09-01T00:01:31.682Z,0.00
2018-09-01T00:02:31.730Z,0.00
2018-09-01T00:03:31.525Z,0.00
2018-09-01T00:04:31.468Z,0.00
2018-09-01T00:05:31.515Z,0.00
2018-09-01T00:06:31.301Z,0.00
2018-09-01T00:07:31.305Z,0.00
2018-09-01T00:08:31.150Z,0.00
2018-09-01T00:09:31.043Z,0.00
2018-09-01T00:10:30.995Z,0.00
2018-09-01T00:11:30.889Z,0.00
2018-09-01T00:12:30.817Z,0.00
2018-09-01T00:13:30.744Z,0.00
2018-09-01T00:14:30.666Z,0.00
2018-09-01T00:15:30.579Z,0.00
2018-09-01T00:16:30.490Z,0.00
2018-09-01T00:17:30.403Z,0.00
2018-09-01T00:20:12.329Z,0.00
2018-09-01T00:21:12.233Z,0.00
2018-09-01T00:22:12.169Z,0.00
2018-09-01T00:23:12.077Z,0.00
2018-09-01T00:24:12.004Z,0.00
2018-09-01T00:25:11.912Z,0.00
2018-09-01T00:26:11.827Z,0.00
2018-09-01T00:27:11.744Z,0.00
2018-09-01T00:28:11.676Z,0.00
2018-09-01T00:29:11.658Z,0.00
2018-09-01T00:30:11.513Z,0.00
2018-09-01T00:31:11.426Z,0.00
2018-09-01T00:32:11.404Z,0.00
2018-09-01T00:33:11.270Z,0.00
2018-09-01T00:34:11.227Z,0.00
2018-09-01T00:35:11.268Z,0.00
2018-09-01T00:36:11.030Z,0.00
2018-09-01T00:37:10.944Z,0.00
2018-09-01T00:38:10.869Z,0.00
2018-09-01T00:39:10.784Z,0.00
2018-09-01T00:40:10.728Z,0.00
2018-09-01T00:41:10.628Z,0.00
2018-09-01T00:42:10.539Z,0.00
2018-09-01T00:43:10.467Z,0.00
2018-09-01T00:44:10.382Z,0.00
2018-09-01T00:45:10.314Z,0.00
2018-09-01T00:46:10.245Z,0.00
2018-09-01T00:47:10.144Z,0.00
2018-09-01T00:48:10.057Z,0.00
2018-09-01T00:49:09.977Z,0.00
2018-09-01T00:50:09.945Z,0.00
2018-09-01T00:51:09.816Z,0.00
2018-09-01T00:52:09.736Z,0.00
2018-09-01T00:54:51.813Z,0.00
2018-09-01T00:55:51.756Z,0.00
2018-09-01T00:56:51.681Z,0.00
2018-09-01T00:57:51.577Z,0.00
2018-09-01T00:58:51.495Z,0.00
2018-09-01T00:59:51.429Z,0.00
2018-09-01T01:00:51.331Z,0.00
2018-09-01T01:01:51.342Z,0.00
2018-09-01T01:02:51.171Z,0.00
2018-09-01T01:03:51.113Z,0.00
2018-09-01T01:04:51.009Z,0.00
2018-09-01T01:05:50.939Z,0.00
2018-09-01T01:06:50.877Z,0.00
2018-09-01T01:07:50.768Z,0.00
2018-09-01T01:08:50.692Z,0.00
2018-09-01T01:09:50.608Z,0.00
2018-09-01T01:10:50.551Z,0.00
2018-09-01T01:11:50.463Z,0.00
2018-09-01T01:12:50.363Z,0.00
2018-09-01T01:13:50.289Z,0.00
2018-09-01T01:14:50.203Z,0.00
2018-09-01T01:17:32.350Z,0.00
2018-09-01T01:18:32.246Z,0.00
2018-09-01T01:19:32.158Z,0.00
2018-09-01T01:20:32.081Z,0.00
2018-09-01T01:21:32.016Z,0.00
2018-09-01T01:22:31.950Z,0.00
2018-09-01T01:23:31.847Z,0.00
2018-09-01T01:24:31.781Z,0.00
2018-09-01T01:25:31.675Z,0.00
2018-09-01T01:26:31.613Z,0.00
2018-09-01T01:27:31.604Z,0.00
2018-09-01T01:28:31.440Z,0.00
2018-09-01T01:29:31.356Z,0.00
2018-09-01T01:30:31.277Z,0.00
2018-09-01T01:45:54.247Z,0.00
2018-09-01T01:46:54.137Z,0.00
2018-09-01T01:47:54.094Z,0.00
2018-09-01T01:48:53.982Z,0.00
2018-09-01T01:51:35.825Z,0.00
2018-09-01T01:52:35.772Z,0.00
2018-09-01T01:53:35.681Z,0.00
2018-09-01T01:54:35.599Z,0.00
2018-09-01T01:55:35.504Z,0.00
2018-09-01T01:56:35.430Z,0.00
2018-09-01T01:57:35.340Z,0.00
2018-09-01T01:58:35.288Z,0.00
2018-09-01T01:59:35.182Z,0.00
2018-09-01T02:00:35.159Z,0.00
2018-09-01T02:01:35.027Z,0.00
2018-09-01T02:02:34.948Z,0.00
2018-09-01T02:03:34.885Z,0.00
2018-09-01T02:04:34.798Z,0.00
2018-09-01T02:05:34.692Z,0.00
2018-09-01T02:06:34.629Z,0.00
2018-09-01T02:07:34.549Z,0.00
2018-09-01T02:08:34.491Z,0.00
2018-09-01T02:09:34.377Z,0.00
2018-09-01T02:10:34.307Z,0.00
2018-09-01T02:11:34.221Z,0.00
2018-09-01T02:12:34.148Z,0.00
2018-09-01T02:13:34.087Z,0.00
2018-09-01T02:14:33.999Z,0.00
2018-09-01T02:15:33.897Z,0.00
2018-09-01T02:16:33.822Z,0.00
2018-09-01T02:17:33.738Z,0.00
2018-09-01T02:18:33.656Z,0.00
2018-09-01T02:19:33.610Z,0.00
2018-09-01T02:20:33.493Z,0.00
2018-09-01T02:21:33.441Z,0.00
2018-09-01T02:24:15.350Z,0.00
2018-09-01T02:25:15.261Z,0.00
2018-09-01T02:26:15.280Z,0.00
2018-09-01T02:27:15.096Z,0.00
2018-09-01T02:28:15.019Z,0.00
2018-09-01T02:29:15.096Z,0.00
2018-09-01T02:30:14.846Z,0.00
2018-09-01T02:31:14.772Z,0.00
2018-09-01T02:33:39.339Z,0.00
2018-09-01T02:34:40.307Z,0.00
2018-09-01T02:35:39.176Z,0.00
2018-09-01T02:36:39.114Z,0.00
2018-09-01T02:37:39.022Z,0.00
2018-09-01T02:38:38.955Z,0.00
2018-09-01T02:39:38.876Z,0.00
2018-09-01T02:40:38.779Z,0.00
2018-09-01T02:41:38.697Z,0.00
2018-09-01T02:42:38.619Z,0.00
2018-09-01T02:43:38.539Z,0.00
2018-09-01T02:44:38.490Z,0.00
2018-09-01T02:45:38.387Z,0.00
2018-09-01T02:46:38.298Z,0.00
2018-09-01T02:47:38.201Z,0.00
2018-09-01T02:48:38.127Z,0.00
2018-09-01T02:49:38.046Z,0.00
2018-09-01T02:50:37.987Z,0.00
2018-09-01T02:51:37.971Z,0.00
2018-09-01T02:52:37.858Z,0.00
2018-09-01T02:53:37.722Z,0.00
2018-09-01T02:54:37.699Z,0.00
2018-09-01T02:55:37.561Z,0.00
2018-09-01T02:56:37.489Z,0.00
2018-09-01T02:57:37.424Z,0.00
2018-09-01T02:58:37.326Z,0.00
2018-09-01T02:59:37.245Z,0.00
2018-09-01T03:00:37.172Z,0.00
2018-09-01T03:01:37.114Z,0.00
2018-09-01T03:02:37.001Z,0.00
2018-09-01T03:03:36.917Z,0.00
2018-09-01T03:04:36.836Z,0.00
2018-09-01T03:05:36.787Z,0.00
2018-09-01T03:06:36.686Z,0.00
2018-09-01T03:07:36.589Z,0.00
2018-09-01T03:10:18.877Z,0.00
2018-09-01T03:11:18.773Z,0.00
2018-09-01T03:12:18.687Z,0.00
2018-09-01T03:15:00.850Z,0.00
2018-09-01T03:16:01.813Z,0.00
2018-09-01T03:17:00.700Z,0.00
2018-09-01T03:18:00.629Z,0.00
2018-09-01T03:19:00.524Z,0.00
2018-09-01T03:21:42.369Z,0.00
2018-09-01T03:24:06.890Z,0.00
2018-09-01T03:25:06.769Z,0.00
2018-09-01T03:26:06.726Z,0.00
2018-09-01T03:27:06.806Z,0.00
2018-09-01T03:28:06.534Z,0.00
2018-09-01T03:29:06.443Z,0.00
2018-09-01T03:30:06.365Z,0.00
2018-09-01T03:31:06.288Z,0.00
2018-09-01T03:32:06.230Z,0.00
2018-09-01T03:33:06.120Z,0.00
2018-09-01T03:34:06.051Z,0.00
2018-09-01T03:35:05.959Z,0.00
2018-09-01T03:36:05.894Z,0.00
2018-09-01T03:37:05.820Z,0.00
2018-09-01T03:39:05.646Z,0.00
2018-09-01T03:40:05.568Z,0.00
2018-09-01T03:41:05.473Z,0.00
2018-09-01T03:42:05.431Z,0.00
2018-09-01T03:43:05.319Z,0.00
2018-09-01T03:44:05.272Z,0.00
2018-09-01T03:45:05.169Z,0.00
2018-09-01T03:46:05.075Z,0.00
2018-09-01T03:47:04.987Z,0.00
2018-09-01T03:48:04.925Z,0.00
2018-09-01T03:49:04.827Z,0.00
2018-09-01T03:50:04.902Z,0.00
2018-09-01T03:51:04.670Z,0.00
2018-09-01T03:53:47.184Z,0.00
2018-09-01T03:54:46.826Z,0.00
2018-09-01T03:55:46.695Z,0.00
2018-09-01T03:56:46.681Z,0.00
2018-09-01T03:57:46.538Z,0.00
2018-09-01T03:58:46.458Z,0.00
2018-09-01T03:59:46.588Z,0.00
2018-09-01T04:02:28.357Z,0.00
2018-09-01T04:03:28.303Z,0.00
2018-09-01T04:04:28.218Z,0.00
2018-09-01T04:05:28.120Z,0.00
2018-09-01T04:06:28.094Z,0.00
2018-09-01T04:07:27.961Z,0.00
2018-09-01T04:08:27.893Z,0.00
2018-09-01T04:09:27.802Z,0.00
2018-09-01T04:10:27.728Z,0.00
2018-09-01T04:13:09.879Z,0.00
2018-09-01T04:14:09.788Z,0.00
2018-09-01T04:15:09.702Z,0.00
2018-09-01T04:16:09.647Z,4.00
2018-09-01T04:17:09.541Z,4.00
2018-09-01T04:19:51.360Z,4.00
2018-09-01T04:20:52.332Z,4.00
2018-09-01T04:21:51.211Z,8.00
2018-09-01T04:22:51.155Z,8.00
2018-09-01T04:23:51.051Z,8.00
2018-09-01T04:24:50.961Z,8.00
2018-09-01T04:25:50.907Z,12.00
2018-09-01T04:26:50.831Z,12.00
2018-09-01T04:27:50.730Z,16.00
2018-09-01T04:28:50.641Z,16.00
2018-09-01T04:29:50.549Z,20.00
2018-09-01T04:30:50.495Z,24.00
2018-09-01T04:31:50.712Z,28.00
2018-09-01T04:32:50.602Z,32.00
2018-09-01T04:33:50.420Z,36.00
2018-09-01T04:34:50.253Z,44.00
2018-09-01T04:37:57.896Z,60.00
2018-09-01T04:38:57.791Z,68.00
2018-09-01T04:39:57.704Z,76.00
2018-09-01T04:40:57.629Z,84.00
2018-09-01T04:41:57.563Z,96.00
2018-09-01T04:42:57.468Z,104.00
2018-09-01T04:43:57.405Z,116.00
2018-09-01T04:44:57.313Z,128.00
2018-09-01T04:45:57.217Z,140.00
2018-09-01T04:46:58.173Z,152.00
2018-09-01T04:47:57.056Z,168.00
2018-09-01T04:48:56.981Z,180.00
2018-09-01T04:49:56.896Z,196.00
2018-09-01T04:52:38.893Z,244.00
2018-09-01T04:55:20.876Z,296.00
2018-09-01T04:56:20.797Z,316.00
2018-09-01T04:57:20.765Z,336.00
2018-09-01T04:58:20.644Z,364.00
2018-09-01T04:59:20.545Z,384.00
2018-09-01T05:00:20.478Z,412.00
2018-09-01T05:01:20.403Z,440.00
2018-09-01T05:02:20.336Z,464.00
2018-09-01T05:03:20.236Z,488.00
2018-09-01T05:04:20.154Z,520.00
2018-09-01T05:05:20.069Z,544.00
2018-09-01T05:23:43.537Z,1132.00
2018-09-01T05:24:42.429Z,1160.00
2018-09-01T05:27:24.385Z,1252.00
2018-09-01T05:28:24.306Z,1288.00
2018-09-01T05:29:24.242Z,1324.00
2018-09-01T05:30:24.152Z,1356.00
2018-09-01T05:31:24.058Z,1392.00
2018-09-01T05:32:24.002Z,1424.00
2018-09-01T05:33:23.888Z,1460.00
2018-09-01T05:34:23.835Z,1488.00
2018-09-01T05:35:23.806Z,1524.00
2018-09-01T05:38:05.878Z,1612.00
2018-09-01T05:39:05.822Z,1644.00
2018-09-01T05:40:05.720Z,1676.00
2018-09-01T05:41:05.644Z,1708.00
2018-09-01T05:42:05.634Z,1740.00
2018-09-01T05:44:31.892Z,1812.00
2018-09-01T05:45:30.800Z,1848.00
2018-09-01T05:48:12.889Z,1924.00
2018-09-01T05:49:13.842Z,1952.00
2018-09-01T05:50:12.731Z,1980.00
2018-09-01T05:51:12.664Z,2008.00
2018-09-01T05:52:12.563Z,2036.00
2018-09-01T05:53:12.495Z,2068.00
2018-09-01T05:54:12.433Z,2096.00
2018-09-01T05:55:12.338Z,2128.00
2018-09-01T05:56:12.244Z,2160.00
2018-09-01T05:57:12.176Z,2192.00
2018-09-01T05:58:12.096Z,2224.00
2018-09-01T05:59:12.007Z,2248.00
2018-09-01T06:00:11.934Z,2280.00
2018-09-01T06:01:11.842Z,2308.00
2018-09-01T06:02:11.763Z,2344.00
2018-09-01T06:03:11.674Z,2376.00
2018-09-01T06:04:11.599Z,2408.00
2018-09-01T06:05:11.577Z,2448.00
2018-09-01T06:06:11.580Z,2496.00
2018-09-01T06:07:11.360Z,2544.00
2018-09-01T06:08:11.276Z,2596.00
2018-09-01T06:09:11.198Z,2660.00
2018-09-01T06:10:11.145Z,2720.00
2018-09-01T06:11:11.055Z,2796.00
2018-09-01T06:12:10.944Z,2896.00
2018-09-01T06:13:10.881Z,3020.00
2018-09-01T06:14:10.795Z,3160.00
2018-09-01T06:15:10.735Z,3316.00
2018-09-01T06:16:10.626Z,3496.00
2018-09-01T06:17:10.546Z,3692.00
2018-09-01T06:18:10.540Z,3936.00
2018-09-01T06:19:10.421Z,4224.00
2018-09-01T06:20:10.331Z,4692.00
2018-09-01T06:21:10.377Z,5520.00
2018-09-01T06:22:10.164Z,6240.00
2018-09-01T06:24:52.429Z,6596.00
2018-09-01T06:25:52.346Z,6644.00
2018-09-01T06:26:52.243Z,6676.00
2018-09-01T06:27:52.157Z,6712.00
2018-09-01T06:28:52.070Z,6776.00
2018-09-01T06:31:33.919Z,6968.00
2018-09-01T06:32:33.849Z,7008.00
2018-09-01T06:33:33.754Z,7080.00
2018-09-01T06:34:33.680Z,7052.00
2018-09-01T06:35:33.707Z,7180.00
2018-09-01T06:36:33.535Z,7164.00
2018-09-01T06:37:33.471Z,7200.00
2018-09-01T06:38:33.356Z,7276.00
2018-09-01T06:39:33.297Z,7300.00
2018-09-01T06:40:33.200Z,7344.00
2018-09-01T06:41:33.153Z,7376.00
2018-09-01T06:42:33.024Z,7444.00
2018-09-01T06:43:32.937Z,7464.00
2018-09-01T06:44:32.861Z,7476.00
2018-09-01T06:45:32.788Z,7484.00
2018-09-01T06:46:32.720Z,7328.00
2018-09-01T06:47:32.642Z,7104.00
2018-09-01T06:50:14.896Z,6820.00
2018-09-01T06:51:14.842Z,7260.00
2018-09-01T06:52:14.761Z,6996.00
2018-09-01T06:53:14.674Z,6996.00
2018-09-01T06:54:14.605Z,7264.00
2018-09-01T06:56:56.408Z,8556.00
2018-09-01T06:57:56.507Z,8744.00
2018-09-01T06:58:56.255Z,8820.00
2018-09-01T06:59:56.179Z,8912.00
2018-09-01T07:00:56.077Z,8988.00
2018-09-01T07:01:56.006Z,9020.00
2018-09-01T07:02:55.957Z,9064.00
2018-09-01T07:03:55.872Z,9148.00
2018-09-01T07:04:55.821Z,9220.00
2018-09-01T07:05:55.800Z,9252.00
2018-09-01T07:06:55.629Z,9316.00
2018-09-01T07:07:55.643Z,9440.00
2018-09-01T07:08:55.491Z,9412.00
2018-09-01T07:09:55.516Z,9408.00
2018-09-01T07:10:55.314Z,9532.00
2018-09-01T07:11:55.326Z,9764.00
2018-09-01T07:12:55.158Z,9764.00
2018-09-01T07:13:55.164Z,9804.00
2018-09-01T07:14:55.000Z,9868.00
2018-09-01T07:15:55.044Z,10016.00
2018-09-01T07:16:54.839Z,10124.00
2018-09-01T07:17:54.881Z,10216.00
2018-09-01T07:18:54.732Z,10308.00
2018-09-01T07:19:54.657Z,10412.00
2018-09-01T07:20:54.529Z,10560.00
2018-09-01T07:21:54.566Z,10628.00
2018-09-01T07:22:54.389Z,10776.00
2018-09-01T07:23:54.619Z,10856.00
2018-09-01T07:24:54.221Z,11176.00
2018-09-01T07:25:54.201Z,12156.00
2018-09-01T07:26:54.076Z,13536.00
2018-09-01T07:27:54.162Z,14112.00
2018-09-01T07:28:53.933Z,14176.00
2018-09-01T07:29:53.904Z,14240.00
2018-09-01T07:30:54.046Z,14400.00
2018-09-01T07:31:53.820Z,15136.00
2018-09-01T07:32:53.615Z,15872.00
2018-09-01T07:33:53.649Z,16192.00
2018-09-01T07:34:53.513Z,16512.00
2018-09-01T07:35:53.430Z,16928.00
2018-09-01T07:36:53.421Z,17376.00
2018-09-01T07:37:53.343Z,17504.00
2018-09-01T07:38:53.173Z,18240.00
2018-09-01T07:39:53.193Z,18880.00
2018-09-01T07:40:53.008Z,19040.00
2018-09-01T07:41:53.053Z,19424.00
2018-09-01T07:42:52.922Z,19840.00
2018-09-01T07:43:52.873Z,20160.00
2018-09-01T07:44:52.746Z,19936.00
2018-09-01T07:45:52.702Z,20096.00
2018-09-01T07:46:52.562Z,20608.00
2018-09-01T07:47:52.589Z,21056.00
2018-09-01T07:48:52.414Z,21120.00
2018-09-01T07:49:52.409Z,21696.00
2018-09-01T07:50:52.298Z,22080.00
2018-09-01T07:51:52.314Z,21920.00
2018-09-01T07:52:52.130Z,22048.00
2018-09-01T07:53:52.124Z,22784.00
2018-09-01T07:54:51.968Z,23680.00
2018-09-01T07:55:51.969Z,24096.00
2018-09-01T07:56:51.844Z,24128.00
2018-09-01T07:57:51.835Z,24640.00
2018-09-01T07:58:51.676Z,25504.00
2018-09-01T07:59:51.655Z,25760.00
2018-09-01T08:00:51.552Z,26048.00
2018-09-01T08:01:51.606Z,26048.00
2018-09-01T08:02:51.383Z,27872.00
2018-09-01T08:03:51.371Z,27936.00
2018-09-01T08:04:51.235Z,27744.00
2018-09-01T08:05:51.331Z,29056.00
2018-09-01T08:06:51.698Z,30048.00
2018-09-01T08:07:51.086Z,21088.00
2018-09-01T08:08:50.968Z,29728.00
2018-09-01T08:09:51.042Z,30592.00
2018-09-01T08:10:50.817Z,31456.00
2018-09-01T08:11:50.821Z,32032.00
2018-09-01T08:12:50.645Z,32064.00
2018-09-01T08:13:50.690Z,31712.00
2018-09-01T08:14:50.509Z,32096.00
2018-09-01T08:15:50.546Z,33120.00
2018-09-01T08:16:50.397Z,33632.00
2018-09-01T08:17:50.345Z,33760.00
2018-09-01T08:18:50.222Z,33152.00
2018-09-01T08:19:50.235Z,33600.00
2018-09-01T08:20:50.069Z,34336.00
2018-09-01T08:21:50.073Z,34432.00
2018-09-01T08:22:49.923Z,34368.00
2018-09-01T08:23:49.997Z,34496.00
2018-09-01T08:24:49.780Z,23616.00
2018-09-01T08:25:49.765Z,40128.00
2018-09-01T08:26:49.801Z,25696.00
2018-09-01T08:27:49.690Z,59136.00
2018-09-01T08:28:49.606Z,37696.00
2018-09-01T08:29:49.481Z,36992.00
2018-09-01T08:30:49.351Z,35136.00
2018-09-01T08:31:49.402Z,36704.00
2018-09-01T08:32:49.231Z,39264.00
2018-09-01T08:33:49.275Z,41280.00
2018-09-01T08:34:49.280Z,41632.00
2018-09-01T08:35:49.107Z,41440.00
2018-09-01T08:36:48.921Z,40576.00
2018-09-01T08:37:48.958Z,41632.00
2018-09-01T08:38:48.778Z,45600.00
2018-09-01T08:39:48.840Z,41696.00
2018-09-01T08:40:48.705Z,43744.00
2018-09-01T08:41:48.653Z,43936.00
2018-09-01T08:42:48.527Z,44192.00
2018-09-01T08:43:48.749Z,42336.00
2018-09-01T08:44:48.350Z,47136.00
2018-09-01T08:45:48.364Z,35200.00
2018-09-01T08:46:48.230Z,43200.00
2018-09-01T08:47:48.205Z,46016.00
2018-09-01T08:48:48.071Z,46784.00
2018-09-01T08:49:48.103Z,47232.00
2018-09-01T08:50:47.930Z,48064.00
2018-09-01T08:51:48.138Z,48672.00
2018-09-01T08:52:47.836Z,47840.00
2018-09-01T08:53:47.809Z,47136.00
2018-09-01T08:54:47.961Z,25920.00
2018-09-01T08:55:47.617Z,49920.00
2018-09-01T08:56:47.520Z,98112.00
2018-09-01T08:57:47.564Z,50912.00
2018-09-01T08:58:47.369Z,49792.00
2018-09-01T08:59:47.372Z,49600.00
2018-09-01T09:00:47.221Z,50368.00
2018-09-01T09:01:47.291Z,51840.00
2018-09-01T09:02:47.102Z,53120.00
2018-09-01T09:03:47.096Z,26208.00
2018-09-01T09:04:46.948Z,53280.00
2018-09-01T09:05:46.962Z,27520.00
2018-09-01T09:06:46.807Z,54112.00
2018-09-01T09:07:46.775Z,53888.00
2018-09-01T09:08:46.696Z,54272.00
2018-09-01T09:09:46.680Z,54528.00
2018-09-01T09:10:46.520Z,48896.00
2018-09-01T09:11:46.490Z,53696.00
2018-09-01T09:12:46.444Z,53024.00
2018-09-01T09:13:46.448Z,52992.00
2018-09-01T09:14:46.254Z,55872.00
2018-09-01T09:15:46.313Z,56256.00
2018-09-01T09:16:46.133Z,54144.00
2018-09-01T09:17:46.118Z,54592.00
2018-09-01T09:18:46.108Z,52800.00
2018-09-01T09:19:45.955Z,19616.00
2018-09-01T09:20:45.810Z,72384.00
2018-09-01T09:21:45.926Z,58144.00
2018-09-01T09:22:45.681Z,58944.00
2018-09-01T09:23:45.656Z,58112.00
2018-09-01T09:24:45.559Z,59520.00
2018-09-01T09:25:45.563Z,60544.00
2018-09-01T09:26:45.418Z,55712.00
2018-09-01T09:27:45.366Z,49440.00
2018-09-01T09:28:45.268Z,48288.00
2018-09-01T09:29:45.331Z,52512.00
2018-09-01T09:30:45.121Z,58016.00
2018-09-01T09:31:45.188Z,61120.00
2018-09-01T09:32:45.001Z,62656.00
2018-09-01T09:33:45.009Z,44480.00
2018-09-01T09:34:44.870Z,21024.00
2018-09-01T09:35:44.881Z,19904.00
2018-09-01T09:36:44.755Z,60736.00
2018-09-01T09:37:44.751Z,60000.00
2018-09-01T09:38:44.577Z,63360.00
2018-09-01T09:39:44.627Z,64416.00
2018-09-01T09:40:44.474Z,66272.00
2018-09-01T09:41:44.467Z,68128.00
2018-09-01T09:42:44.296Z,69920.00
2018-09-01T09:43:44.423Z,112032.00
2018-09-01T09:44:44.171Z,82400.00
2018-09-01T09:45:44.184Z,69728.00
2018-09-01T09:46:44.017Z,69376.00
2018-09-01T09:47:44.068Z,69216.00
2018-09-01T09:48:43.884Z,68544.00
2018-09-01T09:49:43.939Z,69024.00
2018-09-01T09:50:43.780Z,71200.00
2018-09-01T09:51:43.785Z,70624.00
2018-09-01T09:52:43.617Z,60064.00
2018-09-01T09:53:43.601Z,11968.00
2018-09-01T09:54:43.476Z,72608.00
2018-09-01T09:55:43.567Z,72960.00
2018-09-01T09:56:43.364Z,72960.00
2018-09-01T09:57:43.303Z,72352.00
2018-09-01T09:58:43.194Z,71584.00
2018-09-01T09:59:43.218Z,70976.00
2018-09-01T10:00:43.082Z,71264.00
2018-09-01T10:01:43.081Z,72320.00
2018-09-01T10:02:42.930Z,74400.00
2018-09-01T10:03:42.942Z,73952.00
2018-09-01T10:04:42.793Z,74560.00
2018-09-01T10:05:42.778Z,11744.00
2018-09-01T10:06:42.780Z,78848.00
2018-09-01T10:07:42.686Z,65184.00
2018-09-01T10:08:42.505Z,78048.00
2018-09-01T10:09:42.463Z,75840.00
2018-09-01T10:10:42.392Z,76032.00
2018-09-01T10:11:42.385Z,75648.00
2018-09-01T10:12:42.477Z,76096.00
2018-09-01T10:13:42.185Z,78400.00
2018-09-01T10:14:42.093Z,80448.00
2018-09-01T10:15:42.225Z,81056.00
2018-09-01T10:16:41.976Z,79712.00
2018-09-01T10:17:41.949Z,78784.00
2018-09-01T10:18:41.822Z,79520.00
2018-09-01T10:19:41.820Z,78944.00
2018-09-01T10:20:41.687Z,79552.00
2018-09-01T10:21:41.662Z,78848.00
2018-09-01T10:22:41.563Z,77152.00
2018-09-01T10:23:41.534Z,82560.00
2018-09-01T10:24:41.406Z,12580.00
2018-09-01T10:25:41.448Z,11660.00
2018-09-01T10:26:41.291Z,12100.00
2018-09-01T10:29:23.491Z,84736.00
2018-09-01T10:32:05.556Z,87744.00
2018-09-01T10:33:05.522Z,84448.00
2018-09-01T10:34:05.388Z,85888.00
2018-09-01T10:35:05.432Z,83104.00
2018-09-01T10:36:05.213Z,11144.00
2018-09-01T10:37:05.176Z,11768.00
2018-09-01T10:38:05.100Z,13696.00
2018-09-01T10:39:05.086Z,14560.00
2018-09-01T10:40:04.937Z,13328.00
2018-09-01T10:41:04.914Z,14252.00
2018-09-01T10:42:04.851Z,92672.00
2018-09-01T10:43:04.805Z,89472.00
2018-09-01T10:44:04.678Z,88384.00
2018-09-01T10:45:04.610Z,87168.00
2018-09-01T10:46:04.514Z,87008.00
2018-09-01T10:47:04.543Z,90048.00
2018-09-01T10:48:04.391Z,16032.00
2018-09-01T10:50:29.127Z,11664.00
2018-09-01T10:51:28.931Z,10968.00
2018-09-01T10:52:28.927Z,10356.00
2018-09-01T10:53:28.804Z,9916.00
2018-09-01T10:54:28.771Z,10592.00
2018-09-01T10:55:28.638Z,9384.00
2018-09-01T10:58:10.532Z,8780.00
2018-09-01T10:59:10.784Z,8432.00
2018-09-01T11:26:32.785Z,27648.00
2018-09-01T11:29:15.010Z,89952.00
2018-09-01T11:30:17.020Z,88096.00
2018-09-01T11:31:14.904Z,21184.00
2018-09-01T11:32:14.853Z,82528.00
2018-09-01T11:33:15.535Z,25600.00
2018-09-01T11:35:57.153Z,44992.00
2018-09-01T11:36:57.075Z,14056.00
2018-09-01T11:37:56.876Z,12984.00
2018-09-01T11:38:56.906Z,12784.00
2018-09-01T11:39:56.736Z,12632.00
2018-09-01T11:42:39.127Z,11632.00
2018-09-01T11:45:21.081Z,11612.00
2018-09-01T11:46:22.060Z,9500.00
2018-09-01T11:47:20.883Z,8424.00
2018-09-01T11:48:20.905Z,7856.00
2018-09-01T11:49:20.736Z,8172.00
2018-09-01T11:50:20.720Z,8708.00
2018-09-01T11:51:20.628Z,8972.00
2018-09-01T11:52:20.544Z,9224.00
2018-09-01T11:53:20.593Z,10008.00
2018-09-01T11:54:20.558Z,10964.00
2018-09-01T11:55:20.280Z,41440.00
2018-09-01T12:11:00.292Z,8820.00
2018-09-01T12:12:00.288Z,9160.00
2018-09-01T12:13:00.144Z,9624.00
2018-09-01T12:14:00.094Z,9912.00
2018-09-01T12:14:59.981Z,9764.00
2018-09-01T12:15:59.993Z,9628.00
2018-09-01T12:16:59.830Z,10132.00
2018-09-01T12:17:59.843Z,10456.00
2018-09-01T12:18:59.673Z,10404.00
2018-09-01T12:19:59.736Z,10448.00
2018-09-01T12:20:59.513Z,10400.00
2018-09-01T12:21:59.526Z,10420.00
2018-09-01T12:22:59.380Z,10432.00
2018-09-01T12:25:41.532Z,10372.00
2018-09-01T12:26:41.539Z,10252.00
2018-09-01T12:27:41.387Z,10616.00
2018-09-01T12:28:41.384Z,10904.00
2018-09-01T12:29:41.233Z,11448.00
2018-09-01T12:30:41.256Z,11640.00
2018-09-01T12:31:41.075Z,11688.00
2018-09-01T12:32:41.067Z,11556.00
2018-09-01T12:33:40.942Z,11436.00
2018-09-01T12:34:40.867Z,11164.00
2018-09-01T12:35:40.776Z,11296.00
2018-09-01T12:36:40.786Z,11008.00
2018-09-01T12:37:40.653Z,10540.00
2018-09-01T12:38:41.663Z,9948.00
2018-09-01T12:39:40.459Z,9808.00
2018-09-01T12:40:40.502Z,9640.00
2018-09-01T12:41:40.308Z,9372.00
2018-09-01T12:42:40.329Z,9204.00
2018-09-01T12:43:40.174Z,9504.00
2018-09-01T12:44:40.133Z,9624.00
2018-09-01T12:45:40.036Z,9668.00
2018-09-01T12:46:40.030Z,9552.00
2018-09-01T12:54:03.359Z,10320.00
2018-09-01T12:55:03.239Z,10204.00
2018-09-01T12:56:04.066Z,10000.00
2018-09-01T12:57:03.080Z,9572.00
2018-09-01T12:58:03.044Z,8964.00
2018-09-01T12:59:03.017Z,8408.00
2018-09-01T13:00:02.955Z,8120.00
2018-09-01T13:01:02.770Z,8204.00
2018-09-01T13:03:45.091Z,8000.00
2018-09-01T13:04:45.114Z,7992.00
2018-09-01T13:05:44.893Z,7172.00
2018-09-01T13:06:44.888Z,6836.00
2018-09-01T13:07:44.749Z,6488.00
2018-09-01T13:08:44.789Z,6804.00
2018-09-01T13:09:44.620Z,5664.00
2018-09-01T13:10:44.607Z,5760.00
2018-09-01T13:11:44.445Z,5768.00
2018-09-01T13:14:26.578Z,5576.00
2018-09-01T13:15:26.497Z,5548.00
2018-09-01T13:16:26.397Z,5480.00
2018-09-01T13:17:26.329Z,5428.00
2018-09-01T13:18:26.246Z,5384.00
2018-09-01T13:19:26.188Z,5376.00
2018-09-01T13:20:26.121Z,5496.00
2018-09-01T13:21:26.008Z,5448.00
2018-09-01T13:22:25.937Z,5496.00
2018-09-01T13:23:25.875Z,5576.00
2018-09-01T13:24:25.763Z,5604.00
2018-09-01T13:25:25.753Z,5804.00
2018-09-01T13:26:25.623Z,5780.00
2018-09-01T13:27:25.557Z,5936.00
2018-09-01T13:28:25.457Z,6120.00
2018-09-01T13:29:25.388Z,6304.00
2018-09-01T13:30:25.319Z,6192.00
2018-09-01T13:31:26.248Z,6080.00
2018-09-01T13:32:25.155Z,6228.00
2018-09-01T13:33:25.204Z,6476.00
2018-09-01T13:34:25.036Z,6768.00
2018-09-01T13:35:24.929Z,6840.00
2018-09-01T13:36:24.983Z,7100.00
2018-09-01T13:37:24.773Z,7492.00
2018-09-01T13:38:24.689Z,7900.00
2018-09-01T13:41:06.568Z,8280.00
2018-09-01T13:42:06.550Z,9120.00
2018-09-01T13:43:06.399Z,9188.00
2018-09-01T13:44:06.345Z,9672.00
2018-09-01T13:45:06.253Z,10152.00
2018-09-01T13:46:07.350Z,10388.00
2018-09-01T13:47:06.114Z,10468.00
2018-09-01T13:48:06.025Z,10396.00
2018-09-01T13:49:05.939Z,9988.00
2018-09-01T13:50:05.884Z,9164.00
2018-09-01T13:51:05.790Z,8544.00
2018-09-01T13:52:05.748Z,7752.00
2018-09-01T13:53:05.634Z,7088.00
2018-09-01T13:54:05.559Z,6508.00
2018-09-01T13:55:05.529Z,5356.00
2018-09-01T13:56:05.404Z,5144.00
2018-09-01T13:57:05.423Z,5552.00
2018-09-01T13:58:05.249Z,5264.00
2018-09-01T13:59:05.171Z,4992.00
2018-09-01T14:01:47.071Z,4656.00
2018-09-01T14:02:47.029Z,5020.00
2018-09-01T14:03:46.967Z,5052.00
2018-09-01T14:06:29.072Z,5596.00
2018-09-01T14:07:29.014Z,5952.00
2018-09-01T14:08:28.919Z,6464.00
2018-09-01T14:09:28.850Z,6840.00
2018-09-01T14:10:28.757Z,6876.00
2018-09-01T14:11:28.686Z,6992.00
2018-09-01T14:12:28.667Z,7020.00
2018-09-01T14:15:10.580Z,5984.00
2018-09-01T14:17:52.633Z,4800.00
2018-09-01T14:19:13.478Z,4832.00
2018-09-01T14:19:52.428Z,4556.00
2018-09-01T14:20:52.364Z,4336.00
2018-09-01T14:21:52.269Z,4120.00
2018-09-01T14:22:52.213Z,4152.00
2018-09-01T14:23:52.117Z,4168.00
2018-09-01T14:24:52.050Z,4168.00
2018-09-01T14:25:51.960Z,4052.00
2018-09-01T14:28:34.118Z,4224.00
2018-09-01T14:29:34.029Z,4308.00
2018-09-01T14:30:33.919Z,4404.00
2018-09-01T14:31:33.869Z,4492.00
2018-09-01T14:32:33.771Z,4812.00
2018-09-01T14:33:33.788Z,4936.00
2018-09-01T14:34:33.614Z,5116.00
2018-09-01T14:37:15.645Z,4972.00
2018-09-01T14:43:32.310Z,4292.00
2018-09-01T14:44:32.222Z,3900.00
2018-09-01T14:45:32.116Z,3620.00
2018-09-01T14:46:32.092Z,3340.00
2018-09-01T14:47:32.028Z,3228.00
2018-09-01T14:48:31.939Z,3256.00
2018-09-01T14:49:31.825Z,3192.00
2018-09-01T14:53:44.090Z,3100.00
2018-09-01T14:54:44.030Z,3104.00
2018-09-01T14:55:43.927Z,3292.00
2018-09-01T14:56:43.872Z,3280.00
2018-09-01T14:57:43.803Z,3340.00
2018-09-01T14:58:43.764Z,3428.00
2018-09-01T14:59:43.653Z,3572.00
2018-09-01T15:00:43.540Z,3552.00